sensor_id;sensor_type;location;lat;lon;timestamp;P1;durP1;ratioP1;P2;durP2;ratioP2
1400;SDS011;46518;48.842;8.926;2022-11-20T00:02:15;4.82;;;4.30;;
1400;SDS011;46518;48.842;8.926;2022-11-20T00:04:44;6.25;;;4.68;;
1400;SDS011;46518;48.842;8.926;2022-11-20T00:07:13;8.05;;;4.80;;
1400;SDS011;46518;48.842;8.926;2022-11-20T00:09:42;8.00;;;4.30;;
1400;SDS011;46518;48.842;8.926;2022-11-20T00:12:10;5.03;;;4.40;;
1400;SDS011;46518;48.842;8.926;2022-11-20T00:14:38;6.22;;;4.10;;
1400;SDS011;46518;48.842;8.926;2022-11-20T00:17:07;4.47;;;4.05;;
1400;SDS011;46518;48.842;8.926;2022-11-20T00:19:36;5.30;;;3.80;;
1400;SDS011;46518;48.842;8.926;2022-11-20T00:22:04;7.00;;;4.22;;
1400;SDS011;46518;48.842;8.926;2022-11-20T00:24:33;3.60;;;3.30;;
1400;SDS011;46518;48.842;8.926;2022-11-20T00:27:08;4.55;;;3.95;;
1400;SDS011;46518;48.842;8.926;2022-11-20T00:29:36;4.97;;;3.63;;
1400;SDS011;46518;48.842;8.926;2022-11-20T00:32:04;5.53;;;3.38;;
1400;SDS011;46518;48.842;8.926;2022-11-20T00:34:33;4.20;;;3.78;;
1400;SDS011;46518;48.842;8.926;2022-11-20T00:37:01;4.10;;;3.70;;
1400;SDS011;46518;48.842;8.926;2022-11-20T00:39:29;5.20;;;3.92;;
1400;SDS011;46518;48.842;8.926;2022-11-20T00:41:59;4.65;;;3.58;;
1400;SDS011;46518;48.842;8.926;2022-11-20T00:44:27;3.50;;;3.20;;
1400;SDS011;46518;48.842;8.926;2022-11-20T00:46:55;4.13;;;3.58;;
1400;SDS011;46518;48.842;8.926;2022-11-20T00:49:23;4.63;;;3.70;;
1400;SDS011;46518;48.842;8.926;2022-11-20T00:51:51;3.63;;;3.25;;
1400;SDS011;46518;48.842;8.926;2022-11-20T00:54:19;4.05;;;3.08;;
1400;SDS011;46518;48.842;8.926;2022-11-20T00:56:47;3.80;;;3.17;;
1400;SDS011;46518;48.842;8.926;2022-11-20T00:59:17;6.00;;;4.03;;
1400;SDS011;46518;48.842;8.926;2022-11-20T01:01:45;4.28;;;3.13;;
1400;SDS011;46518;48.842;8.926;2022-11-20T01:04:14;4.10;;;3.60;;
1400;SDS011;46518;48.842;8.926;2022-11-20T01:06:42;4.18;;;3.30;;
1400;SDS011;46518;48.842;8.926;2022-11-20T01:09:16;3.75;;;3.10;;
1400;SDS011;46518;48.842;8.926;2022-11-20T01:11:45;2.80;;;2.53;;
1400;SDS011;46518;48.842;8.926;2022-11-20T01:14:14;4.13;;;3.65;;
1400;SDS011;46518;48.842;8.926;2022-11-20T01:16:46;3.67;;;2.75;;
1400;SDS011;46518;48.842;8.926;2022-11-20T01:19:16;4.30;;;3.42;;
1400;SDS011;46518;48.842;8.926;2022-11-20T01:21:49;3.78;;;3.30;;
1400;SDS011;46518;48.842;8.926;2022-11-20T01:24:18;3.20;;;2.78;;
1400;SDS011;46518;48.842;8.926;2022-11-20T01:26:49;4.07;;;3.17;;
1400;SDS011;46518;48.842;8.926;2022-11-20T01:29:19;3.33;;;3.03;;
1400;SDS011;46518;48.842;8.926;2022-11-20T01:31:51;3.50;;;2.83;;
1400;SDS011;46518;48.842;8.926;2022-11-20T01:34:20;3.28;;;2.75;;
1400;SDS011;46518;48.842;8.926;2022-11-20T01:36:50;4.10;;;2.92;;
1400;SDS011;46518;48.842;8.926;2022-11-20T01:39:22;4.03;;;3.10;;
1400;SDS011;46518;48.842;8.926;2022-11-20T01:41:51;4.28;;;3.55;;
1400;SDS011;46518;48.842;8.926;2022-11-20T01:44:48;4.40;;;4.00;;
1400;SDS011;46518;48.842;8.926;2022-11-20T01:47:28;3.72;;;3.42;;
1400;SDS011;46518;48.842;8.926;2022-11-20T01:50:00;3.33;;;3.03;;
1400;SDS011;46518;48.842;8.926;2022-11-20T01:52:33;5.00;;;4.60;;
1400;SDS011;46518;48.842;8.926;2022-11-20T01:55:04;3.85;;;3.55;;
1400;SDS011;46518;48.842;8.926;2022-11-20T01:57:35;3.00;;;2.70;;
1400;SDS011;46518;48.842;8.926;2022-11-20T02:00:06;3.70;;;3.05;;
1400;SDS011;46518;48.842;8.926;2022-11-20T02:02:42;4.97;;;3.20;;
1400;SDS011;46518;48.842;8.926;2022-11-20T02:05:18;3.50;;;3.20;;
1400;SDS011;46518;48.842;8.926;2022-11-20T02:07:51;7.18;;;2.72;;
1400;SDS011;46518;48.842;8.926;2022-11-20T02:10:22;3.40;;;2.65;;
1400;SDS011;46518;48.842;8.926;2022-11-20T02:12:50;5.07;;;2.75;;
1400;SDS011;46518;48.842;8.926;2022-11-20T02:15:36;2.70;;;2.50;;
1400;SDS011;46518;48.842;8.926;2022-11-20T02:18:05;2.50;;;2.30;;
1400;SDS011;46518;48.842;8.926;2022-11-20T02:20:34;2.80;;;2.58;;
1400;SDS011;46518;48.842;8.926;2022-11-20T02:23:03;3.35;;;2.20;;
1400;SDS011;46518;48.842;8.926;2022-11-20T02:25:37;3.17;;;2.80;;
1400;SDS011;46518;48.842;8.926;2022-11-20T02:28:07;4.20;;;2.17;;
1400;SDS011;46518;48.842;8.926;2022-11-20T02:30:36;2.15;;;1.95;;
1400;SDS011;46518;48.842;8.926;2022-11-20T02:33:04;2.35;;;2.15;;
1400;SDS011;46518;48.842;8.926;2022-11-20T02:35:42;3.28;;;2.08;;
1400;SDS011;46518;48.842;8.926;2022-11-20T02:38:11;5.90;;;2.70;;
1400;SDS011;46518;48.842;8.926;2022-11-20T02:40:42;3.00;;;2.00;;
1400;SDS011;46518;48.842;8.926;2022-11-20T02:43:10;4.13;;;2.67;;
1400;SDS011;46518;48.842;8.926;2022-11-20T02:45:38;2.80;;;2.45;;
1400;SDS011;46518;48.842;8.926;2022-11-20T02:48:15;3.00;;;2.67;;
1400;SDS011;46518;48.842;8.926;2022-11-20T02:50:44;3.78;;;2.58;;
1400;SDS011;46518;48.842;8.926;2022-11-20T02:53:11;2.95;;;2.40;;
1400;SDS011;46518;48.842;8.926;2022-11-20T02:55:41;2.35;;;2.15;;
1400;SDS011;46518;48.842;8.926;2022-11-20T02:58:09;3.10;;;2.65;;
1400;SDS011;46518;48.842;8.926;2022-11-20T03:00:37;3.20;;;2.00;;
1400;SDS011;46518;48.842;8.926;2022-11-20T03:03:05;2.67;;;2.45;;
1400;SDS011;46518;48.842;8.926;2022-11-20T03:05:33;2.63;;;2.42;;
1400;SDS011;46518;48.842;8.926;2022-11-20T03:08:02;3.72;;;2.42;;
1400;SDS011;46518;48.842;8.926;2022-11-20T03:10:30;2.97;;;2.78;;
1400;SDS011;46518;48.842;8.926;2022-11-20T03:12:59;2.70;;;2.20;;
1400;SDS011;46518;48.842;8.926;2022-11-20T03:15:29;3.22;;;2.92;;
1400;SDS011;46518;48.842;8.926;2022-11-20T03:17:57;4.25;;;3.15;;
1400;SDS011;46518;48.842;8.926;2022-11-20T03:20:25;2.20;;;2.00;;
1400;SDS011;46518;48.842;8.926;2022-11-20T03:22:53;2.67;;;2.50;;
1400;SDS011;46518;48.842;8.926;2022-11-20T03:25:40;3.50;;;3.20;;
1400;SDS011;46518;48.842;8.926;2022-11-20T03:28:09;3.00;;;2.78;;
1400;SDS011;46518;48.842;8.926;2022-11-20T03:30:37;3.75;;;2.60;;
1400;SDS011;46518;48.842;8.926;2022-11-20T03:33:05;2.78;;;2.45;;
1400;SDS011;46518;48.842;8.926;2022-11-20T03:35:33;2.58;;;2.13;;
1400;SDS011;46518;48.842;8.926;2022-11-20T03:38:02;4.45;;;3.13;;
1400;SDS011;46518;48.842;8.926;2022-11-20T03:40:30;3.85;;;2.72;;
1400;SDS011;46518;48.842;8.926;2022-11-20T03:42:58;2.63;;;2.17;;
1400;SDS011;46518;48.842;8.926;2022-11-20T03:45:27;3.35;;;3.05;;
1400;SDS011;46518;48.842;8.926;2022-11-20T03:47:56;2.60;;;2.40;;
1400;SDS011;46518;48.842;8.926;2022-11-20T03:50:24;3.38;;;2.60;;
1400;SDS011;46518;48.842;8.926;2022-11-20T03:52:52;2.95;;;2.65;;
1400;SDS011;46518;48.842;8.926;2022-11-20T03:55:20;3.10;;;2.60;;
1400;SDS011;46518;48.842;8.926;2022-11-20T03:57:49;3.38;;;3.08;;
1400;SDS011;46518;48.842;8.926;2022-11-20T04:00:17;3.63;;;3.33;;
1400;SDS011;46518;48.842;8.926;2022-11-20T04:02:46;4.00;;;3.45;;
1400;SDS011;46518;48.842;8.926;2022-11-20T04:05:14;4.75;;;3.78;;
1400;SDS011;46518;48.842;8.926;2022-11-20T04:07:43;3.17;;;2.88;;
1400;SDS011;46518;48.842;8.926;2022-11-20T04:10:11;3.58;;;3.38;;
1400;SDS011;46518;48.842;8.926;2022-11-20T04:12:39;5.00;;;3.38;;
1400;SDS011;46518;48.842;8.926;2022-11-20T04:15:07;3.75;;;3.00;;
1400;SDS011;46518;48.842;8.926;2022-11-20T04:17:36;3.75;;;3.38;;
1400;SDS011;46518;48.842;8.926;2022-11-20T04:20:07;4.28;;;3.97;;
1400;SDS011;46518;48.842;8.926;2022-11-20T04:22:35;3.55;;;3.25;;
1400;SDS011;46518;48.842;8.926;2022-11-20T04:25:04;4.47;;;3.20;;
1400;SDS011;46518;48.842;8.926;2022-11-20T04:27:32;4.45;;;3.65;;
1400;SDS011;46518;48.842;8.926;2022-11-20T04:30:00;4.22;;;3.33;;
1400;SDS011;46518;48.842;8.926;2022-11-20T04:32:30;4.63;;;3.72;;
1400;SDS011;46518;48.842;8.926;2022-11-20T04:34:58;3.67;;;3.35;;
1400;SDS011;46518;48.842;8.926;2022-11-20T04:37:28;3.83;;;3.28;;
1400;SDS011;46518;48.842;8.926;2022-11-20T04:39:56;3.22;;;2.90;;
1400;SDS011;46518;48.842;8.926;2022-11-20T04:42:24;5.45;;;2.80;;
1400;SDS011;46518;48.842;8.926;2022-11-20T04:44:55;4.45;;;3.20;;
1400;SDS011;46518;48.842;8.926;2022-11-20T04:47:29;6.82;;;3.47;;
1400;SDS011;46518;48.842;8.926;2022-11-20T04:49:57;3.80;;;2.97;;
1400;SDS011;46518;48.842;8.926;2022-11-20T04:52:25;3.30;;;3.00;;
1400;SDS011;46518;48.842;8.926;2022-11-20T04:54:55;4.57;;;2.95;;
1400;SDS011;46518;48.842;8.926;2022-11-20T04:57:23;2.95;;;2.75;;
1400;SDS011;46518;48.842;8.926;2022-11-20T04:59:51;3.65;;;2.90;;
1400;SDS011;46518;48.842;8.926;2022-11-20T05:02:20;3.30;;;3.00;;
1400;SDS011;46518;48.842;8.926;2022-11-20T05:04:48;3.28;;;2.85;;
1400;SDS011;46518;48.842;8.926;2022-11-20T05:07:17;3.10;;;2.30;;
1400;SDS011;46518;48.842;8.926;2022-11-20T05:09:45;5.07;;;2.90;;
1400;SDS011;46518;48.842;8.926;2022-11-20T05:12:14;2.83;;;2.53;;
1400;SDS011;46518;48.842;8.926;2022-11-20T05:14:43;3.20;;;2.75;;
1400;SDS011;46518;48.842;8.926;2022-11-20T05:17:11;2.50;;;2.38;;
1400;SDS011;46518;48.842;8.926;2022-11-20T05:19:40;3.35;;;2.63;;
1400;SDS011;46518;48.842;8.926;2022-11-20T05:22:08;2.70;;;2.08;;
1400;SDS011;46518;48.842;8.926;2022-11-20T05:24:36;2.63;;;2.42;;
1400;SDS011;46518;48.842;8.926;2022-11-20T05:27:04;1.95;;;1.85;;
1400;SDS011;46518;48.842;8.926;2022-11-20T05:29:34;3.50;;;1.85;;
1400;SDS011;46518;48.842;8.926;2022-11-20T05:32:02;2.33;;;1.92;;
1400;SDS011;46518;48.842;8.926;2022-11-20T05:34:32;2.65;;;2.45;;
1400;SDS011;46518;48.842;8.926;2022-11-20T05:37:00;2.30;;;2.10;;
1400;SDS011;46518;48.842;8.926;2022-11-20T05:39:28;3.20;;;1.90;;
1400;SDS011;46518;48.842;8.926;2022-11-20T05:41:57;2.38;;;2.15;;
1400;SDS011;46518;48.842;8.926;2022-11-20T05:44:40;2.55;;;2.35;;
1400;SDS011;46518;48.842;8.926;2022-11-20T05:47:08;2.75;;;1.90;;
1400;SDS011;46518;48.842;8.926;2022-11-20T05:49:36;2.63;;;1.60;;
1400;SDS011;46518;48.842;8.926;2022-11-20T05:52:05;1.77;;;1.60;;
1400;SDS011;46518;48.842;8.926;2022-11-20T05:54:33;4.03;;;1.50;;
1400;SDS011;46518;48.842;8.926;2022-11-20T05:57:02;3.05;;;2.35;;
1400;SDS011;46518;48.842;8.926;2022-11-20T05:59:31;2.28;;;2.08;;
1400;SDS011;46518;48.842;8.926;2022-11-20T06:02:00;2.67;;;2.20;;
1400;SDS011;46518;48.842;8.926;2022-11-20T06:04:28;2.38;;;2.17;;
1400;SDS011;46518;48.842;8.926;2022-11-20T06:06:56;2.85;;;2.05;;
1400;SDS011;46518;48.842;8.926;2022-11-20T06:09:25;1.92;;;1.83;;
1400;SDS011;46518;48.842;8.926;2022-11-20T06:11:53;2.22;;;2.03;;
1400;SDS011;46518;48.842;8.926;2022-11-20T06:14:21;2.03;;;1.70;;
1400;SDS011;46518;48.842;8.926;2022-11-20T06:16:49;2.35;;;1.77;;
1400;SDS011;46518;48.842;8.926;2022-11-20T06:19:21;2.10;;;1.90;;
1400;SDS011;46518;48.842;8.926;2022-11-20T06:21:49;2.35;;;2.15;;
1400;SDS011;46518;48.842;8.926;2022-11-20T06:24:17;1.60;;;1.50;;
1400;SDS011;46518;48.842;8.926;2022-11-20T06:26:46;1.90;;;1.60;;
1400;SDS011;46518;48.842;8.926;2022-11-20T06:29:14;3.67;;;1.80;;
1400;SDS011;46518;48.842;8.926;2022-11-20T06:31:42;1.88;;;1.77;;
1400;SDS011;46518;48.842;8.926;2022-11-20T06:34:11;3.47;;;2.00;;
1400;SDS011;46518;48.842;8.926;2022-11-20T06:36:40;2.75;;;1.90;;
1400;SDS011;46518;48.842;8.926;2022-11-20T06:39:09;2.17;;;1.92;;
1400;SDS011;46518;48.842;8.926;2022-11-20T06:41:37;2.17;;;1.88;;
1400;SDS011;46518;48.842;8.926;2022-11-20T06:44:05;2.20;;;2.00;;
1400;SDS011;46518;48.842;8.926;2022-11-20T06:46:33;2.70;;;1.85;;
1400;SDS011;46518;48.842;8.926;2022-11-20T06:49:19;2.83;;;1.95;;
1400;SDS011;46518;48.842;8.926;2022-11-20T06:51:49;2.53;;;2.33;;
1400;SDS011;46518;48.842;8.926;2022-11-20T06:54:17;2.45;;;2.25;;
1400;SDS011;46518;48.842;8.926;2022-11-20T06:56:46;2.50;;;2.17;;
1400;SDS011;46518;48.842;8.926;2022-11-20T06:59:15;2.90;;;2.20;;
1400;SDS011;46518;48.842;8.926;2022-11-20T07:01:43;1.83;;;1.73;;
1400;SDS011;46518;48.842;8.926;2022-11-20T07:04:11;1.80;;;1.70;;
1400;SDS011;46518;48.842;8.926;2022-11-20T07:06:42;2.35;;;1.50;;
1400;SDS011;46518;48.842;8.926;2022-11-20T07:09:12;1.30;;;1.20;;
1400;SDS011;46518;48.842;8.926;2022-11-20T07:11:40;3.35;;;1.33;;
1400;SDS011;46518;48.842;8.926;2022-11-20T07:14:08;1.90;;;1.40;;
1400;SDS011;46518;48.842;8.926;2022-11-20T07:16:36;1.60;;;1.40;;
1400;SDS011;46518;48.842;8.926;2022-11-20T07:19:05;1.60;;;1.50;;
1400;SDS011;46518;48.842;8.926;2022-11-20T07:21:33;1.85;;;1.70;;
1400;SDS011;46518;48.842;8.926;2022-11-20T07:24:01;1.58;;;1.40;;
1400;SDS011;46518;48.842;8.926;2022-11-20T07:26:30;1.55;;;1.45;;
1400;SDS011;46518;48.842;8.926;2022-11-20T07:28:58;1.90;;;1.70;;
1400;SDS011;46518;48.842;8.926;2022-11-20T07:31:26;2.15;;;1.60;;
1400;SDS011;46518;48.842;8.926;2022-11-20T07:33:55;1.58;;;1.40;;
1400;SDS011;46518;48.842;8.926;2022-11-20T07:36:23;2.25;;;1.48;;
1400;SDS011;46518;48.842;8.926;2022-11-20T07:38:51;1.88;;;1.50;;
1400;SDS011;46518;48.842;8.926;2022-11-20T07:41:20;1.83;;;1.60;;
1400;SDS011;46518;48.842;8.926;2022-11-20T07:43:50;2.63;;;1.95;;
1400;SDS011;46518;48.842;8.926;2022-11-20T07:46:19;2.40;;;2.10;;
1400;SDS011;46518;48.842;8.926;2022-11-20T07:48:47;1.80;;;1.70;;
1400;SDS011;46518;48.842;8.926;2022-11-20T07:51:15;1.70;;;1.60;;
1400;SDS011;46518;48.842;8.926;2022-11-20T07:53:43;1.65;;;1.55;;
1400;SDS011;46518;48.842;8.926;2022-11-20T07:56:11;1.60;;;1.50;;
1400;SDS011;46518;48.842;8.926;2022-11-20T07:58:40;2.22;;;1.80;;
1400;SDS011;46518;48.842;8.926;2022-11-20T08:01:10;1.33;;;1.17;;
1400;SDS011;46518;48.842;8.926;2022-11-20T08:03:38;1.40;;;1.27;;
1400;SDS011;46518;48.842;8.926;2022-11-20T08:06:06;1.20;;;1.10;;
1400;SDS011;46518;48.842;8.926;2022-11-20T08:08:35;0.80;;;0.77;;
1400;SDS011;46518;48.842;8.926;2022-11-20T08:11:08;1.50;;;0.98;;
1400;SDS011;46518;48.842;8.926;2022-11-20T08:13:54;0.90;;;0.90;;
1400;SDS011;46518;48.842;8.926;2022-11-20T08:16:59;1.10;;;1.00;;
1400;SDS011;46518;48.842;8.926;2022-11-20T08:19:27;1.13;;;1.02;;
1400;SDS011;46518;48.842;8.926;2022-11-20T08:21:56;1.00;;;0.88;;
1400;SDS011;46518;48.842;8.926;2022-11-20T08:24:24;1.33;;;1.00;;
1400;SDS011;46518;48.842;8.926;2022-11-20T08:26:53;1.65;;;1.00;;
1400;SDS011;46518;48.842;8.926;2022-11-20T08:29:21;1.33;;;1.23;;
1400;SDS011;46518;48.842;8.926;2022-11-20T08:31:50;1.42;;;1.13;;
1400;SDS011;46518;48.842;8.926;2022-11-20T08:34:19;1.83;;;1.02;;
1400;SDS011;46518;48.842;8.926;2022-11-20T08:36:47;1.02;;;0.93;;
1400;SDS011;46518;48.842;8.926;2022-11-20T08:39:16;2.35;;;1.25;;
1400;SDS011;46518;48.842;8.926;2022-11-20T08:41:44;1.30;;;1.10;;
1400;SDS011;46518;48.842;8.926;2022-11-20T08:44:12;0.80;;;0.80;;
1400;SDS011;46518;48.842;8.926;2022-11-20T08:46:41;1.50;;;1.40;;
1400;SDS011;46518;48.842;8.926;2022-11-20T08:49:10;0.98;;;0.88;;
1400;SDS011;46518;48.842;8.926;2022-11-20T08:51:41;1.20;;;1.10;;
1400;SDS011;46518;48.842;8.926;2022-11-20T08:54:10;0.95;;;0.85;;
1400;SDS011;46518;48.842;8.926;2022-11-20T08:56:38;0.80;;;0.80;;
1400;SDS011;46518;48.842;8.926;2022-11-20T08:59:07;1.10;;;1.00;;
1400;SDS011;46518;48.842;8.926;2022-11-20T09:01:55;1.10;;;1.00;;
1400;SDS011;46518;48.842;8.926;2022-11-20T09:04:23;0.80;;;0.80;;
1400;SDS011;46518;48.842;8.926;2022-11-20T09:06:53;1.23;;;1.00;;
1400;SDS011;46518;48.842;8.926;2022-11-20T09:09:21;2.45;;;0.93;;
1400;SDS011;46518;48.842;8.926;2022-11-20T09:11:50;1.10;;;1.00;;
1400;SDS011;46518;48.842;8.926;2022-11-20T09:14:18;1.25;;;1.02;;
1400;SDS011;46518;48.842;8.926;2022-11-20T09:16:48;1.00;;;0.90;;
1400;SDS011;46518;48.842;8.926;2022-11-20T09:19:16;1.80;;;1.20;;
1400;SDS011;46518;48.842;8.926;2022-11-20T09:22:06;1.20;;;1.10;;
1400;SDS011;46518;48.842;8.926;2022-11-20T09:24:35;1.42;;;1.20;;
1400;SDS011;46518;48.842;8.926;2022-11-20T09:27:03;1.30;;;1.20;;
1400;SDS011;46518;48.842;8.926;2022-11-20T09:29:32;1.15;;;1.05;;
1400;SDS011;46518;48.842;8.926;2022-11-20T09:32:00;11.13;;;1.30;;
1400;SDS011;46518;48.842;8.926;2022-11-20T09:34:28;0.82;;;0.82;;
1400;SDS011;46518;48.842;8.926;2022-11-20T09:36:56;1.00;;;0.90;;
1400;SDS011;46518;48.842;8.926;2022-11-20T09:39:35;1.63;;;1.50;;
1400;SDS011;46518;48.842;8.926;2022-11-20T09:42:10;1.50;;;1.40;;
1400;SDS011;46518;48.842;8.926;2022-11-20T09:44:49;2.50;;;2.22;;
1400;SDS011;46518;48.842;8.926;2022-11-20T09:47:30;1.75;;;1.65;;
1400;SDS011;46518;48.842;8.926;2022-11-20T09:50:14;2.58;;;2.38;;
1400;SDS011;46518;48.842;8.926;2022-11-20T09:52:53;3.38;;;2.50;;
1400;SDS011;46518;48.842;8.926;2022-11-20T09:55:33;3.97;;;2.58;;
1400;SDS011;46518;48.842;8.926;2022-11-20T09:58:05;3.35;;;3.05;;
1400;SDS011;46518;48.842;8.926;2022-11-20T10:00:34;3.65;;;3.35;;
1400;SDS011;46518;48.842;8.926;2022-11-20T10:03:05;3.22;;;2.92;;
1400;SDS011;46518;48.842;8.926;2022-11-20T10:05:42;2.28;;;2.10;;
1400;SDS011;46518;48.842;8.926;2022-11-20T10:08:15;1.92;;;1.67;;
1400;SDS011;46518;48.842;8.926;2022-11-20T10:10:49;1.85;;;1.17;;
1400;SDS011;46518;48.842;8.926;2022-11-20T10:13:24;1.60;;;1.50;;
1400;SDS011;46518;48.842;8.926;2022-11-20T10:16:06;1.45;;;1.33;;
1400;SDS011;46518;48.842;8.926;2022-11-20T10:18:49;2.80;;;1.60;;
1400;SDS011;46518;48.842;8.926;2022-11-20T10:21:26;1.00;;;1.00;;
1400;SDS011;46518;48.842;8.926;2022-11-20T10:24:11;1.15;;;1.05;;
1400;SDS011;46518;48.842;8.926;2022-11-20T10:26:57;1.45;;;1.30;;
1400;SDS011;46518;48.842;8.926;2022-11-20T10:29:34;1.40;;;1.30;;
1400;SDS011;46518;48.842;8.926;2022-11-20T10:32:07;1.98;;;1.42;;
1400;SDS011;46518;48.842;8.926;2022-11-20T10:34:54;2.00;;;1.80;;
1400;SDS011;46518;48.842;8.926;2022-11-20T10:37:29;4.07;;;2.33;;
1400;SDS011;46518;48.842;8.926;2022-11-20T10:40:02;3.75;;;2.80;;
1400;SDS011;46518;48.842;8.926;2022-11-20T10:42:48;3.08;;;2.78;;
1400;SDS011;46518;48.842;8.926;2022-11-20T10:45:36;3.58;;;3.28;;
1400;SDS011;46518;48.842;8.926;2022-11-20T10:48:20;6.32;;;3.45;;
1400;SDS011;46518;48.842;8.926;2022-11-20T10:51:03;4.05;;;3.75;;
1400;SDS011;46518;48.842;8.926;2022-11-20T10:53:54;5.32;;;3.65;;
1400;SDS011;46518;48.842;8.926;2022-11-20T10:56:31;5.88;;;3.92;;
1400;SDS011;46518;48.842;8.926;2022-11-20T11:02:19;3.10;;;2.80;;
1400;SDS011;46518;48.842;8.926;2022-11-20T11:04:54;3.72;;;3.42;;
1400;SDS011;46518;48.842;8.926;2022-11-20T11:07:29;7.10;;;3.63;;
1400;SDS011;46518;48.842;8.926;2022-11-20T11:10:13;5.53;;;4.20;;
1400;SDS011;46518;48.842;8.926;2022-11-20T11:12:50;7.35;;;4.32;;
1400;SDS011;46518;48.842;8.926;2022-11-20T11:15:27;3.85;;;3.50;;
1400;SDS011;46518;48.842;8.926;2022-11-20T11:18:22;5.07;;;3.92;;
1400;SDS011;46518;48.842;8.926;2022-11-20T11:20:56;5.82;;;3.47;;
1400;SDS011;46518;48.842;8.926;2022-11-20T11:23:31;5.85;;;4.75;;
1400;SDS011;46518;48.842;8.926;2022-11-20T11:26:06;4.45;;;3.67;;
1400;SDS011;46518;48.842;8.926;2022-11-20T11:28:53;4.80;;;3.33;;
1400;SDS011;46518;48.842;8.926;2022-11-20T11:31:24;5.30;;;3.20;;
1400;SDS011;46518;48.842;8.926;2022-11-20T11:34:16;4.68;;;3.10;;
1400;SDS011;46518;48.842;8.926;2022-11-20T11:36:50;3.28;;;3.08;;
1400;SDS011;46518;48.842;8.926;2022-11-20T11:39:26;2.92;;;2.70;;
1400;SDS011;46518;48.842;8.926;2022-11-20T11:42:00;3.22;;;2.92;;
1400;SDS011;46518;48.842;8.926;2022-11-20T11:44:32;2.92;;;2.35;;
1400;SDS011;46518;48.842;8.926;2022-11-20T11:47:22;2.50;;;2.33;;
1400;SDS011;46518;48.842;8.926;2022-11-20T11:50:07;3.45;;;3.15;;
1400;SDS011;46518;48.842;8.926;2022-11-20T11:52:59;3.42;;;2.35;;
1400;SDS011;46518;48.842;8.926;2022-11-20T11:55:42;6.05;;;1.95;;
1400;SDS011;46518;48.842;8.926;2022-11-20T11:58:17;3.70;;;3.25;;
1400;SDS011;46518;48.842;8.926;2022-11-20T12:01:07;3.20;;;1.88;;
1400;SDS011;46518;48.842;8.926;2022-11-20T12:03:52;3.97;;;2.30;;
1400;SDS011;46518;48.842;8.926;2022-11-20T12:06:33;2.63;;;1.70;;
1400;SDS011;46518;48.842;8.926;2022-11-20T12:09:08;2.03;;;1.92;;
1400;SDS011;46518;48.842;8.926;2022-11-20T12:11:43;1.55;;;1.45;;
1400;SDS011;46518;48.842;8.926;2022-11-20T12:14:25;2.95;;;1.60;;
1400;SDS011;46518;48.842;8.926;2022-11-20T12:17:07;2.22;;;1.50;;
1400;SDS011;46518;48.842;8.926;2022-11-20T12:19:45;2.38;;;1.70;;
1400;SDS011;46518;48.842;8.926;2022-11-20T12:22:24;2.10;;;1.73;;
1400;SDS011;46518;48.842;8.926;2022-11-20T12:25:06;3.17;;;1.42;;
1400;SDS011;46518;48.842;8.926;2022-11-20T12:27:59;4.40;;;1.70;;
1400;SDS011;46518;48.842;8.926;2022-11-20T12:31:13;1.90;;;1.38;;
1400;SDS011;46518;48.842;8.926;2022-11-20T12:33:57;1.65;;;1.55;;
1400;SDS011;46518;48.842;8.926;2022-11-20T12:36:44;1.75;;;1.45;;
1400;SDS011;46518;48.842;8.926;2022-11-20T12:39:35;2.85;;;1.70;;
1400;SDS011;46518;48.842;8.926;2022-11-20T12:42:27;3.85;;;1.58;;
1400;SDS011;46518;48.842;8.926;2022-11-20T12:45:29;4.93;;;1.73;;
1400;SDS011;46518;48.842;8.926;2022-11-20T12:48:14;4.50;;;2.15;;
1400;SDS011;46518;48.842;8.926;2022-11-20T12:50:58;2.10;;;1.50;;
1400;SDS011;46518;48.842;8.926;2022-11-20T12:53:43;1.70;;;1.60;;
1400;SDS011;46518;48.842;8.926;2022-11-20T12:56:23;1.98;;;1.85;;
1400;SDS011;46518;48.842;8.926;2022-11-20T12:59:00;2.42;;;1.55;;
1400;SDS011;46518;48.842;8.926;2022-11-20T13:01:40;1.80;;;1.40;;
1400;SDS011;46518;48.842;8.926;2022-11-20T13:04:18;4.40;;;1.23;;
1400;SDS011;46518;48.842;8.926;2022-11-20T13:07:05;3.33;;;1.30;;
1400;SDS011;46518;48.842;8.926;2022-11-20T13:09:37;2.10;;;1.38;;
1400;SDS011;46518;48.842;8.926;2022-11-20T13:12:12;2.38;;;1.80;;
1400;SDS011;46518;48.842;8.926;2022-11-20T13:14:45;1.48;;;1.35;;
1400;SDS011;46518;48.842;8.926;2022-11-20T13:17:20;3.08;;;1.27;;
1400;SDS011;46518;48.842;8.926;2022-11-20T13:19:55;1.60;;;1.02;;
1400;SDS011;46518;48.842;8.926;2022-11-20T13:22:26;1.30;;;1.20;;
1400;SDS011;46518;48.842;8.926;2022-11-20T13:24:56;3.63;;;1.30;;
1400;SDS011;46518;48.842;8.926;2022-11-20T13:27:25;3.47;;;1.55;;
1400;SDS011;46518;48.842;8.926;2022-11-20T13:30:02;2.63;;;1.50;;
1400;SDS011;46518;48.842;8.926;2022-11-20T13:32:50;1.88;;;1.10;;
1400;SDS011;46518;48.842;8.926;2022-11-20T13:35:24;2.67;;;0.90;;
1400;SDS011;46518;48.842;8.926;2022-11-20T13:38:01;2.08;;;1.40;;
1400;SDS011;46518;48.842;8.926;2022-11-20T13:40:32;2.03;;;1.65;;
1400;SDS011;46518;48.842;8.926;2022-11-20T13:43:07;1.33;;;1.15;;
1400;SDS011;46518;48.842;8.926;2022-11-20T13:45:54;1.50;;;1.40;;
1400;SDS011;46518;48.842;8.926;2022-11-20T13:48:25;1.20;;;1.10;;
1400;SDS011;46518;48.842;8.926;2022-11-20T13:51:07;2.10;;;1.80;;
1400;SDS011;46518;48.842;8.926;2022-11-20T13:56:54;1.92;;;1.10;;
1400;SDS011;46518;48.842;8.926;2022-11-20T13:59:37;1.38;;;1.23;;
1400;SDS011;46518;48.842;8.926;2022-11-20T14:02:14;1.48;;;1.30;;
1400;SDS011;46518;48.842;8.926;2022-11-20T14:04:45;2.28;;;1.67;;
1400;SDS011;46518;48.842;8.926;2022-11-20T14:07:15;3.53;;;2.08;;
1400;SDS011;46518;48.842;8.926;2022-11-20T14:09:49;2.30;;;1.60;;
1400;SDS011;46518;48.842;8.926;2022-11-20T14:12:20;2.03;;;1.38;;
1400;SDS011;46518;48.842;8.926;2022-11-20T14:14:51;1.70;;;1.42;;
1400;SDS011;46518;48.842;8.926;2022-11-20T14:17:21;3.38;;;1.75;;
1400;SDS011;46518;48.842;8.926;2022-11-20T14:19:52;4.85;;;2.03;;
1400;SDS011;46518;48.842;8.926;2022-11-20T14:22:22;1.75;;;1.55;;
1400;SDS011;46518;48.842;8.926;2022-11-20T14:25:00;1.55;;;1.45;;
1400;SDS011;46518;48.842;8.926;2022-11-20T14:27:32;1.85;;;1.60;;
1400;SDS011;46518;48.842;8.926;2022-11-20T14:30:05;1.30;;;1.20;;
1400;SDS011;46518;48.842;8.926;2022-11-20T14:32:40;2.05;;;1.08;;
1400;SDS011;46518;48.842;8.926;2022-11-20T14:35:13;1.67;;;1.45;;
1400;SDS011;46518;48.842;8.926;2022-11-20T14:37:49;2.33;;;1.00;;
1400;SDS011;46518;48.842;8.926;2022-11-20T14:40:25;1.50;;;1.40;;
1400;SDS011;46518;48.842;8.926;2022-11-20T14:42:56;1.23;;;1.10;;
1400;SDS011;46518;48.842;8.926;2022-11-20T14:45:26;2.28;;;1.40;;
1400;SDS011;46518;48.842;8.926;2022-11-20T14:47:55;2.90;;;1.38;;
1400;SDS011;46518;48.842;8.926;2022-11-20T14:50:26;2.20;;;1.58;;
1400;SDS011;46518;48.842;8.926;2022-11-20T14:52:57;3.95;;;1.40;;
1400;SDS011;46518;48.842;8.926;2022-11-20T14:55:28;1.73;;;1.27;;
1400;SDS011;46518;48.842;8.926;2022-11-20T14:57:58;2.03;;;1.17;;
1400;SDS011;46518;48.842;8.926;2022-11-20T15:00:29;2.30;;;1.48;;
1400;SDS011;46518;48.842;8.926;2022-11-20T15:03:01;2.47;;;1.23;;
1400;SDS011;46518;48.842;8.926;2022-11-20T15:05:44;2.03;;;1.65;;
1400;SDS011;46518;48.842;8.926;2022-11-20T15:08:14;2.30;;;1.27;;
1400;SDS011;46518;48.842;8.926;2022-11-20T15:10:46;1.88;;;1.50;;
1400;SDS011;46518;48.842;8.926;2022-11-20T15:13:16;3.35;;;2.33;;
1400;SDS011;46518;48.842;8.926;2022-11-20T15:15:51;1.30;;;1.15;;
1400;SDS011;46518;48.842;8.926;2022-11-20T15:18:22;1.48;;;1.35;;
1400;SDS011;46518;48.842;8.926;2022-11-20T15:20:54;3.20;;;2.03;;
1400;SDS011;46518;48.842;8.926;2022-11-20T15:23:23;2.53;;;1.70;;
1400;SDS011;46518;48.842;8.926;2022-11-20T15:25:54;3.15;;;2.28;;
1400;SDS011;46518;48.842;8.926;2022-11-20T15:28:25;3.20;;;1.95;;
1400;SDS011;46518;48.842;8.926;2022-11-20T15:30:59;2.30;;;2.00;;
1400;SDS011;46518;48.842;8.926;2022-11-20T15:33:27;2.15;;;1.67;;
1400;SDS011;46518;48.842;8.926;2022-11-20T15:35:55;2.47;;;1.70;;
1400;SDS011;46518;48.842;8.926;2022-11-20T15:38:24;2.78;;;1.70;;
1400;SDS011;46518;48.842;8.926;2022-11-20T15:40:52;3.47;;;1.48;;